sensor_id;sensor_type;location;lat;lon;timestamp;pressure;altitude;pressure_sealevel;temperature;humidity
62926;BME280;55732;52.248;-0.844;2022-12-29T00:02:13;98326.61;;;8.44;84.11
62926;BME280;55732;52.248;-0.844;2022-12-29T00:04:39;98314.77;;;8.41;83.97
62926;BME280;55732;52.248;-0.844;2022-12-29T00:07:04;98305.20;;;8.39;83.98
62926;BME280;55732;52.248;-0.844;2022-12-29T00:09:30;98300.22;;;8.36;83.85
62926;BME280;55732;52.248;-0.844;2022-12-29T00:11:56;98308.20;;;8.32;83.88
62926;BME280;55732;52.248;-0.844;2022-12-29T00:14:21;98301.59;;;8.29;83.92
62926;BME280;55732;52.248;-0.844;2022-12-29T00:17:05;98304.65;;;8.27;84.13
62926;BME280;55732;52.248;-0.844;2022-12-29T00:19:30;98304.19;;;8.25;84.11
62926;BME280;55732;52.248;-0.844;2022-12-29T00:22:15;98313.33;;;8.24;84.37
62926;BME280;55732;52.248;-0.844;2022-12-29T00:24:59;98314.08;;;8.22;84.49
62926;BME280;55732;52.248;-0.844;2022-12-29T00:27:34;98303.75;;;8.21;84.64
62926;BME280;55732;52.248;-0.844;2022-12-29T00:30:19;98301.95;;;8.23;84.51
62926;BME280;55732;52.248;-0.844;2022-12-29T00:33:08;98301.13;;;8.27;84.50
62926;BME280;55732;52.248;-0.844;2022-12-29T00:35:57;98297.52;;;8.31;84.37
62926;BME280;55732;52.248;-0.844;2022-12-29T00:38:25;98299.39;;;8.34;84.54
62926;BME280;55732;52.248;-0.844;2022-12-29T00:41:10;98295.46;;;8.37;84.52
62926;BME280;55732;52.248;-0.844;2022-12-29T00:43:54;98288.55;;;8.39;84.33
62926;BME280;55732;52.248;-0.844;2022-12-29T00:46:35;98288.34;;;8.40;84.48
62926;BME280;55732;52.248;-0.844;2022-12-29T00:49:01;98282.34;;;8.41;84.28
62926;BME280;55732;52.248;-0.844;2022-12-29T00:51:45;98283.00;;;8.43;83.95
62926;BME280;55732;52.248;-0.844;2022-12-29T00:54:11;98275.77;;;8.44;83.96
62926;BME280;55732;52.248;-0.844;2022-12-29T00:56:37;98274.71;;;8.44;83.92
62926;BME280;55732;52.248;-0.844;2022-12-29T00:59:03;98271.20;;;8.44;83.89
62926;BME280;55732;52.248;-0.844;2022-12-29T01:01:29;98273.64;;;8.45;83.76
62926;BME280;55732;52.248;-0.844;2022-12-29T01:03:54;98279.43;;;8.44;83.47
62926;BME280;55732;52.248;-0.844;2022-12-29T01:06:20;98276.88;;;8.42;83.41
62926;BME280;55732;52.248;-0.844;2022-12-29T01:08:45;98264.31;;;8.40;83.23
62926;BME280;55732;52.248;-0.844;2022-12-29T01:11:11;98262.22;;;8.40;83.29
62926;BME280;55732;52.248;-0.844;2022-12-29T01:13:37;98264.94;;;8.37;83.27
62926;BME280;55732;52.248;-0.844;2022-12-29T01:16:04;98263.27;;;8.34;83.28
62926;BME280;55732;52.248;-0.844;2022-12-29T01:18:29;98268.56;;;8.33;83.33
62926;BME280;55732;52.248;-0.844;2022-12-29T01:20:58;98263.81;;;8.33;83.03
62926;BME280;55732;52.248;-0.844;2022-12-29T01:23:24;98255.36;;;8.35;82.94
62926;BME280;55732;52.248;-0.844;2022-12-29T01:25:49;98253.21;;;8.37;82.73
62926;BME280;55732;52.248;-0.844;2022-12-29T01:28:14;98249.10;;;8.38;82.50
62926;BME280;55732;52.248;-0.844;2022-12-29T01:30:39;98252.23;;;8.39;82.58
62926;BME280;55732;52.248;-0.844;2022-12-29T01:33:05;98253.68;;;8.38;82.32
62926;BME280;55732;52.248;-0.844;2022-12-29T01:35:30;98252.95;;;8.33;82.30
62926;BME280;55732;52.248;-0.844;2022-12-29T01:37:55;98258.12;;;8.29;82.46
62926;BME280;55732;52.248;-0.844;2022-12-29T01:40:21;98262.83;;;8.24;82.64
62926;BME280;55732;52.248;-0.844;2022-12-29T01:42:46;98270.02;;;8.18;82.71
62926;BME280;55732;52.248;-0.844;2022-12-29T01:45:12;98276.46;;;8.13;82.72
62926;BME280;55732;52.248;-0.844;2022-12-29T01:47:48;98282.36;;;8.09;82.68
62926;BME280;55732;52.248;-0.844;2022-12-29T01:50:17;98291.16;;;8.08;82.88
62926;BME280;55732;52.248;-0.844;2022-12-29T01:52:47;98285.89;;;8.08;82.78
62926;BME280;55732;52.248;-0.844;2022-12-29T01:55:15;98291.83;;;8.09;82.48
62926;BME280;55732;52.248;-0.844;2022-12-29T01:57:41;98291.64;;;8.10;82.70
62926;BME280;55732;52.248;-0.844;2022-12-29T02:00:10;98298.48;;;8.09;82.73
62926;BME280;55732;52.248;-0.844;2022-12-29T02:02:36;98304.98;;;8.09;82.79
62926;BME280;55732;52.248;-0.844;2022-12-29T02:05:04;98306.54;;;8.10;82.82
62926;BME280;55732;52.248;-0.844;2022-12-29T02:07:30;98316.47;;;8.12;82.69
62926;BME280;55732;52.248;-0.844;2022-12-29T02:09:56;98320.28;;;8.14;82.69
62926;BME280;55732;52.248;-0.844;2022-12-29T02:12:22;98320.89;;;8.16;82.62
62926;BME280;55732;52.248;-0.844;2022-12-29T02:14:49;98319.96;;;8.18;82.74
62926;BME280;55732;52.248;-0.844;2022-12-29T02:22:18;98303.06;;;8.21;82.56
62926;BME280;55732;52.248;-0.844;2022-12-29T02:30:07;98290.73;;;8.23;82.48
62926;BME280;55732;52.248;-0.844;2022-12-29T02:35:36;98275.43;;;8.25;82.55
62926;BME280;55732;52.248;-0.844;2022-12-29T02:43:47;98258.52;;;8.27;82.46
62926;BME280;55732;52.248;-0.844;2022-12-29T02:46:26;98263.90;;;8.29;82.48
62926;BME280;55732;52.248;-0.844;2022-12-29T02:54:35;98258.84;;;8.36;81.74
62926;BME280;55732;52.248;-0.844;2022-12-29T02:59:48;98252.18;;;8.41;81.82
62926;BME280;55732;52.248;-0.844;2022-12-29T03:02:21;98251.44;;;8.43;81.77
62926;BME280;55732;52.248;-0.844;2022-12-29T03:05:07;98244.41;;;8.43;81.59
62926;BME280;55732;52.248;-0.844;2022-12-29T03:07:40;98239.48;;;8.44;81.45
62926;BME280;55732;52.248;-0.844;2022-12-29T03:12:42;98244.36;;;8.45;81.16
62926;BME280;55732;52.248;-0.844;2022-12-29T03:18:21;98244.88;;;8.45;81.46
62926;BME280;55732;52.248;-0.844;2022-12-29T03:20:55;98239.64;;;8.44;81.34
62926;BME280;55732;52.248;-0.844;2022-12-29T03:23:23;98246.45;;;8.45;81.51
62926;BME280;55732;52.248;-0.844;2022-12-29T03:25:57;98247.34;;;8.45;81.73
62926;BME280;55732;52.248;-0.844;2022-12-29T03:28:28;98250.33;;;8.45;82.14
62926;BME280;55732;52.248;-0.844;2022-12-29T03:30:55;98237.95;;;8.42;82.61
62926;BME280;55732;52.248;-0.844;2022-12-29T03:33:23;98239.13;;;8.38;82.86
62926;BME280;55732;52.248;-0.844;2022-12-29T03:35:49;98245.54;;;8.35;83.29
62926;BME280;55732;52.248;-0.844;2022-12-29T03:40:43;98246.54;;;8.29;83.56
62926;BME280;55732;52.248;-0.844;2022-12-29T03:43:09;98241.20;;;8.27;83.77
62926;BME280;55732;52.248;-0.844;2022-12-29T03:45:35;98247.04;;;8.25;83.97
62926;BME280;55732;52.248;-0.844;2022-12-29T03:48:01;98254.42;;;8.24;84.35
62926;BME280;55732;52.248;-0.844;2022-12-29T03:50:26;98257.95;;;8.23;84.45
62926;BME280;55732;52.248;-0.844;2022-12-29T03:52:51;98257.45;;;8.22;84.81
62926;BME280;55732;52.248;-0.844;2022-12-29T03:55:16;98256.77;;;8.21;85.06
62926;BME280;55732;52.248;-0.844;2022-12-29T03:57:42;98262.80;;;8.19;85.35
62926;BME280;55732;52.248;-0.844;2022-12-29T04:00:07;98259.67;;;8.18;85.43
62926;BME280;55732;52.248;-0.844;2022-12-29T04:02:33;98268.80;;;8.17;85.55
62926;BME280;55732;52.248;-0.844;2022-12-29T04:04:58;98266.88;;;8.17;85.71
62926;BME280;55732;52.248;-0.844;2022-12-29T04:07:23;98285.98;;;8.17;85.94
62926;BME280;55732;52.248;-0.844;2022-12-29T04:09:49;98294.90;;;8.18;86.00
62926;BME280;55732;52.248;-0.844;2022-12-29T04:12:14;98304.71;;;8.18;86.16
62926;BME280;55732;52.248;-0.844;2022-12-29T04:14:39;98321.35;;;8.19;86.48
62926;BME280;55732;52.248;-0.844;2022-12-29T04:17:05;98332.56;;;8.19;86.60
62926;BME280;55732;52.248;-0.844;2022-12-29T04:19:30;98339.94;;;8.18;86.78
62926;BME280;55732;52.248;-0.844;2022-12-29T04:21:55;98349.63;;;8.17;86.82
62926;BME280;55732;52.248;-0.844;2022-12-29T04:24:21;98370.85;;;8.16;86.76
62926;BME280;55732;52.248;-0.844;2022-12-29T04:26:46;98383.14;;;8.15;86.68
62926;BME280;55732;52.248;-0.844;2022-12-29T04:29:11;98390.17;;;8.14;86.78
62926;BME280;55732;52.248;-0.844;2022-12-29T04:31:36;98394.58;;;8.14;86.65
62926;BME280;55732;52.248;-0.844;2022-12-29T04:34:02;98406.80;;;8.15;86.81
62926;BME280;55732;52.248;-0.844;2022-12-29T04:36:27;98408.58;;;8.15;86.70
62926;BME280;55732;52.248;-0.844;2022-12-29T04:38:52;98415.44;;;8.14;86.54
62926;BME280;55732;52.248;-0.844;2022-12-29T04:41:18;98426.21;;;8.11;86.60
62926;BME280;55732;52.248;-0.844;2022-12-29T04:43:43;98428.41;;;8.07;86.58
62926;BME280;55732;52.248;-0.844;2022-12-29T04:46:08;98436.05;;;8.03;86.53
62926;BME280;55732;52.248;-0.844;2022-12-29T04:48:34;98436.02;;;7.97;86.49
62926;BME280;55732;52.248;-0.844;2022-12-29T04:50:59;98442.66;;;7.91;86.64
62926;BME280;55732;52.248;-0.844;2022-12-29T04:53:24;98444.38;;;7.86;86.67
62926;BME280;55732;52.248;-0.844;2022-12-29T04:55:50;98447.64;;;7.81;86.77
62926;BME280;55732;52.248;-0.844;2022-12-29T04:58:16;98452.33;;;7.76;86.75
62926;BME280;55732;52.248;-0.844;2022-12-29T05:00:41;98456.98;;;7.71;86.75
62926;BME280;55732;52.248;-0.844;2022-12-29T05:03:07;98459.73;;;7.66;86.97
62926;BME280;55732;52.248;-0.844;2022-12-29T05:05:32;98462.30;;;7.61;87.00
62926;BME280;55732;52.248;-0.844;2022-12-29T05:07:57;98466.92;;;7.58;87.12
62926;BME280;55732;52.248;-0.844;2022-12-29T05:10:23;98474.02;;;7.55;87.38
62926;BME280;55732;52.248;-0.844;2022-12-29T05:12:48;98478.81;;;7.51;87.49
62926;BME280;55732;52.248;-0.844;2022-12-29T05:15:13;98486.23;;;7.49;87.69
62926;BME280;55732;52.248;-0.844;2022-12-29T05:17:39;98488.20;;;7.46;87.71
62926;BME280;55732;52.248;-0.844;2022-12-29T05:20:04;98493.84;;;7.44;88.06
62926;BME280;55732;52.248;-0.844;2022-12-29T05:22:30;98498.95;;;7.43;87.92
62926;BME280;55732;52.248;-0.844;2022-12-29T05:24:55;98500.36;;;7.43;87.96
62926;BME280;55732;52.248;-0.844;2022-12-29T05:27:20;98502.46;;;7.44;87.87
62926;BME280;55732;52.248;-0.844;2022-12-29T05:29:46;98505.98;;;7.43;87.62
62926;BME280;55732;52.248;-0.844;2022-12-29T05:32:11;98515.61;;;7.43;87.82
62926;BME280;55732;52.248;-0.844;2022-12-29T05:34:37;98526.30;;;7.42;87.81
62926;BME280;55732;52.248;-0.844;2022-12-29T05:37:02;98530.20;;;7.40;87.90
62926;BME280;55732;52.248;-0.844;2022-12-29T05:39:28;98531.63;;;7.38;87.71
62926;BME280;55732;52.248;-0.844;2022-12-29T05:41:53;98542.17;;;7.37;87.68
62926;BME280;55732;52.248;-0.844;2022-12-29T05:44:18;98549.05;;;7.34;87.59
62926;BME280;55732;52.248;-0.844;2022-12-29T05:46:44;98559.77;;;7.32;87.57
62926;BME280;55732;52.248;-0.844;2022-12-29T05:49:09;98564.34;;;7.31;87.52
62926;BME280;55732;52.248;-0.844;2022-12-29T05:51:34;98573.45;;;7.31;87.51
62926;BME280;55732;52.248;-0.844;2022-12-29T05:53:59;98583.09;;;7.31;87.58
62926;BME280;55732;52.248;-0.844;2022-12-29T05:56:25;98591.89;;;7.28;87.30
62926;BME280;55732;52.248;-0.844;2022-12-29T05:58:50;98592.64;;;7.24;87.50
62926;BME280;55732;52.248;-0.844;2022-12-29T06:01:15;98596.71;;;7.22;87.71
62926;BME280;55732;52.248;-0.844;2022-12-29T06:03:40;98602.20;;;7.20;87.51
62926;BME280;55732;52.248;-0.844;2022-12-29T06:06:06;98603.99;;;7.17;87.37
62926;BME280;55732;52.248;-0.844;2022-12-29T06:08:32;98607.55;;;7.15;87.31
62926;BME280;55732;52.248;-0.844;2022-12-29T06:10:57;98609.30;;;7.14;87.15
62926;BME280;55732;52.248;-0.844;2022-12-29T06:13:22;98606.88;;;7.14;86.97
62926;BME280;55732;52.248;-0.844;2022-12-29T06:15:48;98613.00;;;7.13;87.07
62926;BME280;55732;52.248;-0.844;2022-12-29T06:18:14;98616.02;;;7.11;87.02
62926;BME280;55732;52.248;-0.844;2022-12-29T06:20:39;98625.30;;;7.10;86.85
62926;BME280;55732;52.248;-0.844;2022-12-29T06:23:04;98633.07;;;7.08;86.80
62926;BME280;55732;52.248;-0.844;2022-12-29T06:25:29;98636.97;;;7.05;86.78
62926;BME280;55732;52.248;-0.844;2022-12-29T06:27:57;98644.36;;;7.02;86.85
62926;BME280;55732;52.248;-0.844;2022-12-29T06:30:22;98644.40;;;7.00;86.86
62926;BME280;55732;52.248;-0.844;2022-12-29T06:32:47;98652.67;;;6.97;87.09
62926;BME280;55732;52.248;-0.844;2022-12-29T06:35:13;98658.50;;;6.95;86.88
62926;BME280;55732;52.248;-0.844;2022-12-29T06:37:39;98661.86;;;6.92;86.82
62926;BME280;55732;52.248;-0.844;2022-12-29T06:40:04;98673.25;;;6.91;87.03
62926;BME280;55732;52.248;-0.844;2022-12-29T06:42:30;98671.89;;;6.88;86.87
62926;BME280;55732;52.248;-0.844;2022-12-29T06:44:55;98664.27;;;6.84;86.99
62926;BME280;55732;52.248;-0.844;2022-12-29T06:47:23;98672.98;;;6.85;87.08
62926;BME280;55732;52.248;-0.844;2022-12-29T06:49:48;98677.40;;;6.84;87.00
62926;BME280;55732;52.248;-0.844;2022-12-29T06:52:14;98683.89;;;6.83;87.02
62926;BME280;55732;52.248;-0.844;2022-12-29T06:54:39;98695.10;;;6.82;86.83
62926;BME280;55732;52.248;-0.844;2022-12-29T06:57:04;98698.11;;;6.80;86.76
62926;BME280;55732;52.248;-0.844;2022-12-29T06:59:30;98705.27;;;6.80;86.91
62926;BME280;55732;52.248;-0.844;2022-12-29T07:01:55;98709.67;;;6.79;86.99
62926;BME280;55732;52.248;-0.844;2022-12-29T07:04:20;98717.90;;;6.77;86.87
62926;BME280;55732;52.248;-0.844;2022-12-29T07:06:45;98720.38;;;6.76;86.96
62926;BME280;55732;52.248;-0.844;2022-12-29T07:09:11;98729.30;;;6.75;87.14
62926;BME280;55732;52.248;-0.844;2022-12-29T07:11:36;98732.65;;;6.74;87.25
62926;BME280;55732;52.248;-0.844;2022-12-29T07:14:02;98733.23;;;6.71;87.12
62926;BME280;55732;52.248;-0.844;2022-12-29T07:16:28;98740.60;;;6.69;87.25
62926;BME280;55732;52.248;-0.844;2022-12-29T07:18:54;98743.95;;;6.68;87.24
62926;BME280;55732;52.248;-0.844;2022-12-29T07:21:20;98742.58;;;6.66;87.43
62926;BME280;55732;52.248;-0.844;2022-12-29T07:23:45;98745.55;;;6.65;87.48
62926;BME280;55732;52.248;-0.844;2022-12-29T07:26:11;98748.71;;;6.64;87.64
62926;BME280;55732;52.248;-0.844;2022-12-29T07:28:36;98752.41;;;6.62;87.61
62926;BME280;55732;52.248;-0.844;2022-12-29T07:31:03;98755.76;;;6.61;87.54
62926;BME280;55732;52.248;-0.844;2022-12-29T07:33:28;98761.55;;;6.60;87.52
62926;BME280;55732;52.248;-0.844;2022-12-29T07:35:54;98765.59;;;6.60;87.48
62926;BME280;55732;52.248;-0.844;2022-12-29T07:38:19;98769.45;;;6.58;87.54
62926;BME280;55732;52.248;-0.844;2022-12-29T07:40:45;98775.41;;;6.57;87.68
62926;BME280;55732;52.248;-0.844;2022-12-29T07:43:10;98776.81;;;6.57;87.66
62926;BME280;55732;52.248;-0.844;2022-12-29T07:45:35;98781.20;;;6.55;87.63
62926;BME280;55732;52.248;-0.844;2022-12-29T07:48:00;98791.71;;;6.52;87.65
62926;BME280;55732;52.248;-0.844;2022-12-29T07:50:27;98797.33;;;6.51;87.67
62926;BME280;55732;52.248;-0.844;2022-12-29T07:52:52;98800.15;;;6.50;87.79
62926;BME280;55732;52.248;-0.844;2022-12-29T07:55:18;98807.86;;;6.48;87.84
62926;BME280;55732;52.248;-0.844;2022-12-29T07:57:43;98810.68;;;6.48;87.90
62926;BME280;55732;52.248;-0.844;2022-12-29T08:00:09;98813.48;;;6.48;87.86
62926;BME280;55732;52.248;-0.844;2022-12-29T08:02:35;98816.27;;;6.48;87.89
62926;BME280;55732;52.248;-0.844;2022-12-29T08:05:00;98815.54;;;6.49;87.86
62926;BME280;55732;52.248;-0.844;2022-12-29T08:07:25;98820.59;;;6.50;87.99
62926;BME280;55732;52.248;-0.844;2022-12-29T08:09:51;98823.21;;;6.50;87.94
62926;BME280;55732;52.248;-0.844;2022-12-29T08:12:16;98834.21;;;6.51;87.96
62926;BME280;55732;52.248;-0.844;2022-12-29T08:14:41;98843.66;;;6.51;87.83
62926;BME280;55732;52.248;-0.844;2022-12-29T08:17:06;98848.55;;;6.51;87.56
62926;BME280;55732;52.248;-0.844;2022-12-29T08:19:32;98853.61;;;6.52;87.61
62926;BME280;55732;52.248;-0.844;2022-12-29T08:21:57;98856.92;;;6.53;87.58
62926;BME280;55732;52.248;-0.844;2022-12-29T08:24:22;98866.35;;;6.54;87.53
62926;BME280;55732;52.248;-0.844;2022-12-29T08:26:48;98868.62;;;6.56;87.29
62926;BME280;55732;52.248;-0.844;2022-12-29T08:29:13;98868.95;;;6.57;87.31
62926;BME280;55732;52.248;-0.844;2022-12-29T08:31:38;98874.19;;;6.58;87.27
62926;BME280;55732;52.248;-0.844;2022-12-29T08:34:03;98876.45;;;6.60;86.92
62926;BME280;55732;52.248;-0.844;2022-12-29T08:36:29;98884.98;;;6.61;86.90
62926;BME280;55732;52.248;-0.844;2022-12-29T08:38:55;98886.35;;;6.63;86.89
62926;BME280;55732;52.248;-0.844;2022-12-29T08:41:20;98895.07;;;6.66;86.93
62926;BME280;55732;52.248;-0.844;2022-12-29T08:43:46;98908.33;;;6.69;86.81
62926;BME280;55732;52.248;-0.844;2022-12-29T08:46:12;98917.89;;;6.73;86.61
62926;BME280;55732;52.248;-0.844;2022-12-29T08:48:37;98920.46;;;6.76;86.46
62926;BME280;55732;52.248;-0.844;2022-12-29T08:51:03;98919.91;;;6.79;86.53
62926;BME280;55732;52.248;-0.844;2022-12-29T08:53:28;98931.71;;;6.86;86.44
62926;BME280;55732;52.248;-0.844;2022-12-29T08:55:57;98928.30;;;6.94;86.36
62926;BME280;55732;52.248;-0.844;2022-12-29T08:58:23;98933.10;;;7.00;86.34
62926;BME280;55732;52.248;-0.844;2022-12-29T09:00:48;98937.21;;;7.07;86.19
62926;BME280;55732;52.248;-0.844;2022-12-29T09:03:14;98942.21;;;7.12;85.99
62926;BME280;55732;52.248;-0.844;2022-12-29T09:05:39;98942.34;;;7.17;85.88
62926;BME280;55732;52.248;-0.844;2022-12-29T09:08:04;98944.86;;;7.22;85.95
62926;BME280;55732;52.248;-0.844;2022-12-29T09:10:30;98942.27;;;7.33;86.14
62926;BME280;55732;52.248;-0.844;2022-12-29T09:12:56;98946.63;;;7.46;85.94
62926;BME280;55732;52.248;-0.844;2022-12-29T09:15:21;98940.48;;;7.58;85.75
62926;BME280;55732;52.248;-0.844;2022-12-29T09:17:47;98940.23;;;7.63;85.73
62926;BME280;55732;52.248;-0.844;2022-12-29T09:20:16;98943.67;;;7.67;85.56
62926;BME280;55732;52.248;-0.844;2022-12-29T09:22:42;98948.00;;;7.69;85.45
62926;BME280;55732;52.248;-0.844;2022-12-29T09:25:07;98947.46;;;7.71;85.45
62926;BME280;55732;52.248;-0.844;2022-12-29T09:27:34;98950.25;;;7.72;85.36
62926;BME280;55732;52.248;-0.844;2022-12-29T09:29:59;98960.77;;;7.71;85.38
62926;BME280;55732;52.248;-0.844;2022-12-29T09:32:25;98965.40;;;7.67;85.39
62926;BME280;55732;52.248;-0.844;2022-12-29T09:34:50;98973.51;;;7.64;85.44
62926;BME280;55732;52.248;-0.844;2022-12-29T09:37:15;98980.55;;;7.60;85.55
62926;BME280;55732;52.248;-0.844;2022-12-29T09:39:40;98976.42;;;7.56;85.41
62926;BME280;55732;52.248;-0.844;2022-12-29T09:47:24;98989.78;;;7.41;85.70
62926;BME280;55732;52.248;-0.844;2022-12-29T09:49:54;98997.69;;;7.39;85.82
62926;BME280;55732;52.248;-0.844;2022-12-29T09:52:22;99001.35;;;7.40;85.87
62926;BME280;55732;52.248;-0.844;2022-12-29T10:00:09;99011.40;;;7.47;86.00
62926;BME280;55732;52.248;-0.844;2022-12-29T10:05:01;99019.11;;;7.46;85.94
62926;BME280;55732;52.248;-0.844;2022-12-29T10:07:36;99021.67;;;7.52;85.68
62926;BME280;55732;52.248;-0.844;2022-12-29T10:15:35;99042.17;;;7.75;85.41
62926;BME280;55732;52.248;-0.844;2022-12-29T10:25:31;99039.83;;;8.03;84.66
62926;BME280;55732;52.248;-0.844;2022-12-29T10:27:58;99042.73;;;8.07;84.42
62926;BME280;55732;52.248;-0.844;2022-12-29T10:30:24;99042.84;;;8.12;84.32
62926;BME280;55732;52.248;-0.844;2022-12-29T10:32:51;99045.89;;;8.18;84.15
62926;BME280;55732;52.248;-0.844;2022-12-29T10:35:21;99045.81;;;8.24;83.80
62926;BME280;55732;52.248;-0.844;2022-12-29T10:38:03;99053.42;;;8.28;83.71
62926;BME280;55732;52.248;-0.844;2022-12-29T10:43:07;99058.16;;;8.41;83.57
62926;BME280;55732;52.248;-0.844;2022-12-29T10:45:36;99060.91;;;8.45;83.56
62926;BME280;55732;52.248;-0.844;2022-12-29T10:50:28;99061.61;;;8.55;83.47
62926;BME280;55732;52.248;-0.844;2022-12-29T10:52:55;99055.23;;;8.59;83.26
62926;BME280;55732;52.248;-0.844;2022-12-29T10:55:24;99062.15;;;8.63;83.00
62926;BME280;55732;52.248;-0.844;2022-12-29T10:57:50;99064.56;;;8.66;82.70
62926;BME280;55732;52.248;-0.844;2022-12-29T11:00:19;99064.13;;;8.71;82.73
62926;BME280;55732;52.248;-0.844;2022-12-29T11:03:30;99063.28;;;8.79;82.56
62926;BME280;55732;52.248;-0.844;2022-12-29T11:05:36;99065.95;;;8.86;82.29
62926;BME280;55732;52.248;-0.844;2022-12-29T11:08:25;99060.02;;;8.93;81.92
62926;BME280;55732;52.248;-0.844;2022-12-29T11:10:59;99062.14;;;9.02;81.65
62926;BME280;55732;52.248;-0.844;2022-12-29T11:13:27;99068.36;;;9.07;80.91
62926;BME280;55732;52.248;-0.844;2022-12-29T11:15:52;99072.31;;;9.11;81.16
62926;BME280;55732;52.248;-0.844;2022-12-29T11:20:46;99084.60;;;9.20;80.95
62926;BME280;55732;52.248;-0.844;2022-12-29T11:23:25;99091.79;;;9.21;80.77
62926;BME280;55732;52.248;-0.844;2022-12-29T11:28:37;99093.78;;;9.19;80.73
62926;BME280;55732;52.248;-0.844;2022-12-29T11:31:04;99091.27;;;9.21;80.91
62926;BME280;55732;52.248;-0.844;2022-12-29T11:33:30;99093.85;;;9.23;80.77
62926;BME280;55732;52.248;-0.844;2022-12-29T11:38:37;99093.08;;;9.27;80.51
62926;BME280;55732;52.248;-0.844;2022-12-29T11:41:04;99099.55;;;9.28;80.33
62926;BME280;55732;52.248;-0.844;2022-12-29T11:43:31;99108.70;;;9.27;79.92
62926;BME280;55732;52.248;-0.844;2022-12-29T11:45:58;99113.26;;;9.28;79.98
62926;BME280;55732;52.248;-0.844;2022-12-29T11:48:24;99116.13;;;9.33;80.01
62926;BME280;55732;52.248;-0.844;2022-12-29T11:50:53;99122.80;;;9.42;79.70
62926;BME280;55732;52.248;-0.844;2022-12-29T11:53:21;99123.23;;;9.56;79.49
62926;BME280;55732;52.248;-0.844;2022-12-29T11:55:53;99120.02;;;9.75;79.42
62926;BME280;55732;52.248;-0.844;2022-12-29T11:58:21;99125.65;;;9.99;79.21
62926;BME280;55732;52.248;-0.844;2022-12-29T12:00:53;99123.38;;;10.13;78.38
62926;BME280;55732;52.248;-0.844;2022-12-29T12:03:19;99117.64;;;10.19;78.13
62926;BME280;55732;52.248;-0.844;2022-12-29T12:06:02;99120.02;;;10.24;78.11
62926;BME280;55732;52.248;-0.844;2022-12-29T12:08:33;99114.39;;;10.24;77.75
62926;BME280;55732;52.248;-0.844;2022-12-29T12:13:40;99117.07;;;10.05;77.49
62926;BME280;55732;52.248;-0.844;2022-12-29T12:16:17;99122.45;;;10.01;77.47
62926;BME280;55732;52.248;-0.844;2022-12-29T12:21:43;99128.90;;;9.95;77.31
62926;BME280;55732;52.248;-0.844;2022-12-29T12:29:19;99129.56;;;9.89;77.52
62926;BME280;55732;52.248;-0.844;2022-12-29T12:31:47;99125.86;;;9.90;77.56
62926;BME280;55732;52.248;-0.844;2022-12-29T12:34:27;99119.99;;;9.91;77.12
62926;BME280;55732;52.248;-0.844;2022-12-29T12:52:43;99132.34;;;10.53;75.50
62926;BME280;55732;52.248;-0.844;2022-12-29T13:00:26;99137.52;;;10.49;74.88
62926;BME280;55732;52.248;-0.844;2022-12-29T13:03:10;99140.11;;;10.44;74.87
62926;BME280;55732;52.248;-0.844;2022-12-29T13:10:31;99131.61;;;10.15;74.87
62926;BME280;55732;52.248;-0.844;2022-12-29T13:13:28;99128.81;;;10.06;74.79
62926;BME280;55732;52.248;-0.844;2022-12-29T13:16:10;99129.55;;;9.97;75.02
62926;BME280;55732;52.248;-0.844;2022-12-29T13:18:41;99129.06;;;9.88;75.33
62926;BME280;55732;52.248;-0.844;2022-12-29T13:21:24;99131.17;;;9.80;75.45
62926;BME280;55732;52.248;-0.844;2022-12-29T13:26:32;99143.53;;;9.60;75.76
62926;BME280;55732;52.248;-0.844;2022-12-29T13:29:06;99144.09;;;9.58;75.71
62926;BME280;55732;52.248;-0.844;2022-12-29T13:34:20;99144.11;;;9.57;75.49
62926;BME280;55732;52.248;-0.844;2022-12-29T13:36:58;99149.83;;;9.53;75.41
62926;BME280;55732;52.248;-0.844;2022-12-29T13:41:55;99155.83;;;9.34;75.64
62926;BME280;55732;52.248;-0.844;2022-12-29T13:44:34;99149.84;;;9.25;75.74
62926;BME280;55732;52.248;-0.844;2022-12-29T13:47:04;99153.56;;;9.22;75.69
62926;BME280;55732;52.248;-0.844;2022-12-29T13:49:33;99157.42;;;9.23;75.52
62926;BME280;55732;52.248;-0.844;2022-12-29T13:52:04;99159.89;;;9.23;75.37
62926;BME280;55732;52.248;-0.844;2022-12-29T13:54:39;99159.73;;;9.21;75.18
62926;BME280;55732;52.248;-0.844;2022-12-29T13:57:08;99163.36;;;9.16;74.95
62926;BME280;55732;52.248;-0.844;2022-12-29T14:02:11;99176.15;;;8.98;75.33
62926;BME280;55732;52.248;-0.844;2022-12-29T14:04:54;99181.38;;;8.90;75.38
62926;BME280;55732;52.248;-0.844;2022-12-29T14:07:20;99187.10;;;8.84;75.67
62926;BME280;55732;52.248;-0.844;2022-12-29T14:09:46;99192.09;;;8.79;75.62
62926;BME280;55732;52.248;-0.844;2022-12-29T14:12:58;99186.48;;;8.78;75.89
62926;BME280;55732;52.248;-0.844;2022-12-29T14:15:32;99185.83;;;8.76;75.52
62926;BME280;55732;52.248;-0.844;2022-12-29T14:18:04;99186.80;;;8.70;75.64
62926;BME280;55732;52.248;-0.844;2022-12-29T14:20:31;99193.88;;;8.66;75.72
62926;BME280;55732;52.248;-0.844;2022-12-29T14:28:14;99204.52;;;8.48;76.29
62926;BME280;55732;52.248;-0.844;2022-12-29T14:30:47;99205.18;;;8.39;76.51
62926;BME280;55732;52.248;-0.844;2022-12-29T14:33:13;99203.33;;;8.32;76.60
62926;BME280;55732;52.248;-0.844;2022-12-29T14:35:43;99203.21;;;8.26;76.77
62926;BME280;55732;52.248;-0.844;2022-12-29T14:38:19;99203.30;;;8.20;76.85
62926;BME280;55732;52.248;-0.844;2022-12-29T14:40:46;99212.36;;;8.12;77.00
62926;BME280;55732;52.248;-0.844;2022-12-29T14:43:14;99218.62;;;8.02;76.96
62926;BME280;55732;52.248;-0.844;2022-12-29T14:45:43;99216.63;;;7.93;77.13
62926;BME280;55732;52.248;-0.844;2022-12-29T14:48:20;99218.30;;;7.85;77.34
62926;BME280;55732;52.248;-0.844;2022-12-29T14:50:47;99216.18;;;7.72;77.33
62926;BME280;55732;52.248;-0.844;2022-12-29T14:53:41;99231.32;;;7.67;77.74
62926;BME280;55732;52.248;-0.844;2022-12-29T14:56:00;99232.30;;;7.57;78.07
62926;BME280;55732;52.248;-0.844;2022-12-29T14:58:27;99240.44;;;7.49;78.24
62926;BME280;55732;52.248;-0.844;2022-12-29T15:00:54;99245.93;;;7.43;78.60
62926;BME280;55732;52.248;-0.844;2022-12-29T15:03:22;99254.04;;;7.38;78.98
62926;BME280;55732;52.248;-0.844;2022-12-29T15:08:35;99254.10;;;7.32;79.36
62926;BME280;55732;52.248;-0.844;2022-12-29T15:11:04;99259.39;;;7.29;79.37
62926;BME280;55732;52.248;-0.844;2022-12-29T15:13:38;99272.36;;;7.25;79.35
62926;BME280;55732;52.248;-0.844;2022-12-29T15:16:05;99267.86;;;7.20;79.54